sensor_id;sensor_type;location;lat;lon;timestamp;temperature;humidity
16305;DHT22;8261;47.678;-122.174;2023-06-01T00:02:22;18.20;99.90
16305;DHT22;8261;47.678;-122.174;2023-06-01T00:04:55;18.40;99.90
16305;DHT22;8261;47.678;-122.174;2023-06-01T00:07:27;18.20;99.90
16305;DHT22;8261;47.678;-122.174;2023-06-01T00:10:02;18.30;99.90
16305;DHT22;8261;47.678;-122.174;2023-06-01T00:12:34;18.50;99.90
16305;DHT22;8261;47.678;-122.174;2023-06-01T00:15:11;18.60;99.90
16305;DHT22;8261;47.678;-122.174;2023-06-01T00:17:45;18.70;99.90
16305;DHT22;8261;47.678;-122.174;2023-06-01T00:20:20;18.70;99.90
16305;DHT22;8261;47.678;-122.174;2023-06-01T00:22:53;18.40;99.90
16305;DHT22;8261;47.678;-122.174;2023-06-01T00:25:24;18.20;99.90
16305;DHT22;8261;47.678;-122.174;2023-06-01T00:27:57;18.30;99.90
16305;DHT22;8261;47.678;-122.174;2023-06-01T00:30:31;18.10;99.90
16305;DHT22;8261;47.678;-122.174;2023-06-01T00:33:05;17.80;99.90
16305;DHT22;8261;47.678;-122.174;2023-06-01T00:38:23;18.30;99.90
16305;DHT22;8261;47.678;-122.174;2023-06-01T00:40:55;18.50;99.90
16305;DHT22;8261;47.678;-122.174;2023-06-01T00:43:28;18.70;99.90
16305;DHT22;8261;47.678;-122.174;2023-06-01T00:46:02;18.60;99.90
16305;DHT22;8261;47.678;-122.174;2023-06-01T00:48:39;18.40;99.90
16305;DHT22;8261;47.678;-122.174;2023-06-01T00:51:10;18.20;99.90
16305;DHT22;8261;47.678;-122.174;2023-06-01T00:53:43;18.10;99.90
16305;DHT22;8261;47.678;-122.174;2023-06-01T00:56:16;18.30;99.90
16305;DHT22;8261;47.678;-122.174;2023-06-01T00:58:48;18.30;99.90
16305;DHT22;8261;47.678;-122.174;2023-06-01T01:01:20;18.00;99.90
16305;DHT22;8261;47.678;-122.174;2023-06-01T01:03:55;17.90;99.90
16305;DHT22;8261;47.678;-122.174;2023-06-01T01:06:38;17.80;99.90
16305;DHT22;8261;47.678;-122.174;2023-06-01T01:09:20;17.90;99.90
16305;DHT22;8261;47.678;-122.174;2023-06-01T01:11:57;18.10;99.90
16305;DHT22;8261;47.678;-122.174;2023-06-01T01:14:34;18.00;99.90
16305;DHT22;8261;47.678;-122.174;2023-06-01T01:17:13;17.80;99.90
16305;DHT22;8261;47.678;-122.174;2023-06-01T01:20:00;18.00;99.90
16305;DHT22;8261;47.678;-122.174;2023-06-01T01:23:06;18.10;99.90
16305;DHT22;8261;47.678;-122.174;2023-06-01T01:25:59;18.10;99.90
16305;DHT22;8261;47.678;-122.174;2023-06-01T01:28:46;18.20;99.90
16305;DHT22;8261;47.678;-122.174;2023-06-01T01:31:22;18.40;99.90
16305;DHT22;8261;47.678;-122.174;2023-06-01T01:33:55;18.60;99.90
16305;DHT22;8261;47.678;-122.174;2023-06-01T01:36:28;18.40;99.90
16305;DHT22;8261;47.678;-122.174;2023-06-01T01:39:01;17.90;99.90
16305;DHT22;8261;47.678;-122.174;2023-06-01T01:41:35;17.90;99.90
16305;DHT22;8261;47.678;-122.174;2023-06-01T01:44:12;18.00;99.90
16305;DHT22;8261;47.678;-122.174;2023-06-01T01:46:52;18.10;99.90
16305;DHT22;8261;47.678;-122.174;2023-06-01T01:49:30;18.40;99.90
16305;DHT22;8261;47.678;-122.174;2023-06-01T01:52:10;18.40;99.90
16305;DHT22;8261;47.678;-122.174;2023-06-01T01:54:45;18.40;99.90
16305;DHT22;8261;47.678;-122.174;2023-06-01T01:57:19;18.30;99.90
16305;DHT22;8261;47.678;-122.174;2023-06-01T01:59:54;18.20;99.90
16305;DHT22;8261;47.678;-122.174;2023-06-01T02:02:29;17.70;99.90
16305;DHT22;8261;47.678;-122.174;2023-06-01T02:05:04;17.40;99.90
16305;DHT22;8261;47.678;-122.174;2023-06-01T02:07:37;17.10;99.90
16305;DHT22;8261;47.678;-122.174;2023-06-01T02:10:14;17.10;99.90
16305;DHT22;8261;47.678;-122.174;2023-06-01T02:15:36;16.90;99.90
16305;DHT22;8261;47.678;-122.174;2023-06-01T02:18:12;17.00;99.90
16305;DHT22;8261;47.678;-122.174;2023-06-01T02:21:00;17.00;99.90
16305;DHT22;8261;47.678;-122.174;2023-06-01T02:23:37;16.90;99.90
16305;DHT22;8261;47.678;-122.174;2023-06-01T02:26:16;16.90;99.90
16305;DHT22;8261;47.678;-122.174;2023-06-01T02:28:51;16.90;99.90
16305;DHT22;8261;47.678;-122.174;2023-06-01T02:31:27;16.80;99.90
16305;DHT22;8261;47.678;-122.174;2023-06-01T02:34:09;16.70;99.90
16305;DHT22;8261;47.678;-122.174;2023-06-01T02:36:44;16.70;99.90
16305;DHT22;8261;47.678;-122.174;2023-06-01T02:39:19;16.70;99.90
16305;DHT22;8261;47.678;-122.174;2023-06-01T02:41:52;16.60;99.90
16305;DHT22;8261;47.678;-122.174;2023-06-01T02:44:25;16.50;99.90
16305;DHT22;8261;47.678;-122.174;2023-06-01T02:47:02;16.40;99.90
16305;DHT22;8261;47.678;-122.174;2023-06-01T02:49:35;16.30;99.90
16305;DHT22;8261;47.678;-122.174;2023-06-01T02:52:08;16.40;99.90
16305;DHT22;8261;47.678;-122.174;2023-06-01T02:54:39;16.30;99.90
16305;DHT22;8261;47.678;-122.174;2023-06-01T02:57:12;16.30;99.90
16305;DHT22;8261;47.678;-122.174;2023-06-01T02:59:44;16.20;99.90
16305;DHT22;8261;47.678;-122.174;2023-06-01T03:02:18;16.10;99.90
16305;DHT22;8261;47.678;-122.174;2023-06-01T03:04:51;16.10;99.90
16305;DHT22;8261;47.678;-122.174;2023-06-01T03:07:22;16.10;99.90
16305;DHT22;8261;47.678;-122.174;2023-06-01T03:09:54;16.00;99.90
16305;DHT22;8261;47.678;-122.174;2023-06-01T03:12:25;15.90;99.90
16305;DHT22;8261;47.678;-122.174;2023-06-01T03:14:57;15.70;99.90
16305;DHT22;8261;47.678;-122.174;2023-06-01T03:17:30;15.60;99.90
16305;DHT22;8261;47.678;-122.174;2023-06-01T03:20:02;15.50;99.90
16305;DHT22;8261;47.678;-122.174;2023-06-01T03:22:43;15.50;99.90
16305;DHT22;8261;47.678;-122.174;2023-06-01T03:25:16;15.40;99.90
16305;DHT22;8261;47.678;-122.174;2023-06-01T03:27:47;15.20;99.90
16305;DHT22;8261;47.678;-122.174;2023-06-01T03:30:18;15.10;99.90
16305;DHT22;8261;47.678;-122.174;2023-06-01T03:32:52;15.10;99.90
16305;DHT22;8261;47.678;-122.174;2023-06-01T03:35:24;15.10;99.90
16305;DHT22;8261;47.678;-122.174;2023-06-01T03:37:56;15.10;99.90
16305;DHT22;8261;47.678;-122.174;2023-06-01T03:40:28;15.00;99.90
16305;DHT22;8261;47.678;-122.174;2023-06-01T03:43:00;14.90;99.90
16305;DHT22;8261;47.678;-122.174;2023-06-01T03:45:31;14.80;99.90
16305;DHT22;8261;47.678;-122.174;2023-06-01T03:48:05;14.80;99.90
16305;DHT22;8261;47.678;-122.174;2023-06-01T03:50:37;14.70;99.90
16305;DHT22;8261;47.678;-122.174;2023-06-01T03:53:09;14.60;99.90
16305;DHT22;8261;47.678;-122.174;2023-06-01T03:55:41;14.60;99.90
16305;DHT22;8261;47.678;-122.174;2023-06-01T03:58:13;14.40;99.90
16305;DHT22;8261;47.678;-122.174;2023-06-01T04:00:44;14.30;99.90
16305;DHT22;8261;47.678;-122.174;2023-06-01T04:03:21;14.20;99.90
16305;DHT22;8261;47.678;-122.174;2023-06-01T04:05:53;14.00;99.90
16305;DHT22;8261;47.678;-122.174;2023-06-01T04:08:28;13.90;99.90
16305;DHT22;8261;47.678;-122.174;2023-06-01T04:11:00;13.80;99.90
16305;DHT22;8261;47.678;-122.174;2023-06-01T04:13:31;13.70;99.90
16305;DHT22;8261;47.678;-122.174;2023-06-01T04:16:03;13.70;99.90
16305;DHT22;8261;47.678;-122.174;2023-06-01T04:18:37;13.60;99.90
16305;DHT22;8261;47.678;-122.174;2023-06-01T04:21:10;13.50;99.90
16305;DHT22;8261;47.678;-122.174;2023-06-01T04:23:41;13.30;99.90
16305;DHT22;8261;47.678;-122.174;2023-06-01T04:26:13;13.30;99.90
16305;DHT22;8261;47.678;-122.174;2023-06-01T04:28:45;13.20;99.90
16305;DHT22;8261;47.678;-122.174;2023-06-01T04:31:17;13.20;99.90
16305;DHT22;8261;47.678;-122.174;2023-06-01T04:33:50;13.10;99.90
16305;DHT22;8261;47.678;-122.174;2023-06-01T04:36:25;12.90;99.90
16305;DHT22;8261;47.678;-122.174;2023-06-01T04:38:58;12.90;99.90
16305;DHT22;8261;47.678;-122.174;2023-06-01T04:41:36;12.80;99.90
16305;DHT22;8261;47.678;-122.174;2023-06-01T04:44:11;12.80;99.90
16305;DHT22;8261;47.678;-122.174;2023-06-01T04:46:44;12.70;99.90
16305;DHT22;8261;47.678;-122.174;2023-06-01T04:49:20;12.70;99.90
16305;DHT22;8261;47.678;-122.174;2023-06-01T04:51:55;12.50;99.90
16305;DHT22;8261;47.678;-122.174;2023-06-01T04:54:26;12.50;99.90
16305;DHT22;8261;47.678;-122.174;2023-06-01T04:56:58;12.50;99.90
16305;DHT22;8261;47.678;-122.174;2023-06-01T04:59:31;12.40;99.90
16305;DHT22;8261;47.678;-122.174;2023-06-01T05:02:03;12.40;99.90
16305;DHT22;8261;47.678;-122.174;2023-06-01T05:04:37;12.30;99.90
16305;DHT22;8261;47.678;-122.174;2023-06-01T05:07:09;12.20;99.90
16305;DHT22;8261;47.678;-122.174;2023-06-01T05:09:40;12.20;99.90
16305;DHT22;8261;47.678;-122.174;2023-06-01T05:12:12;12.20;99.90
16305;DHT22;8261;47.678;-122.174;2023-06-01T05:14:46;12.10;99.90
16305;DHT22;8261;47.678;-122.174;2023-06-01T05:17:18;12.00;99.90
16305;DHT22;8261;47.678;-122.174;2023-06-01T05:19:52;12.00;99.90
16305;DHT22;8261;47.678;-122.174;2023-06-01T05:22:26;12.00;99.90
16305;DHT22;8261;47.678;-122.174;2023-06-01T05:24:57;11.90;99.90
16305;DHT22;8261;47.678;-122.174;2023-06-01T05:27:29;11.80;99.90
16305;DHT22;8261;47.678;-122.174;2023-06-01T05:30:01;11.70;99.90
16305;DHT22;8261;47.678;-122.174;2023-06-01T05:32:32;11.70;99.90
16305;DHT22;8261;47.678;-122.174;2023-06-01T05:35:08;11.70;99.90
16305;DHT22;8261;47.678;-122.174;2023-06-01T05:37:39;11.60;99.90
16305;DHT22;8261;47.678;-122.174;2023-06-01T05:40:14;11.60;99.90
16305;DHT22;8261;47.678;-122.174;2023-06-01T05:42:45;11.60;99.90
16305;DHT22;8261;47.678;-122.174;2023-06-01T05:45:17;11.50;99.90
16305;DHT22;8261;47.678;-122.174;2023-06-01T05:47:48;11.50;99.90
16305;DHT22;8261;47.678;-122.174;2023-06-01T05:50:22;11.40;99.90
16305;DHT22;8261;47.678;-122.174;2023-06-01T05:52:54;11.40;99.90
16305;DHT22;8261;47.678;-122.174;2023-06-01T05:55:26;11.40;99.90
16305;DHT22;8261;47.678;-122.174;2023-06-01T05:57:59;11.30;99.90
16305;DHT22;8261;47.678;-122.174;2023-06-01T06:00:33;11.40;99.90
16305;DHT22;8261;47.678;-122.174;2023-06-01T06:03:05;11.30;99.90
16305;DHT22;8261;47.678;-122.174;2023-06-01T06:05:39;11.30;99.90
16305;DHT22;8261;47.678;-122.174;2023-06-01T06:08:10;11.20;99.90
16305;DHT22;8261;47.678;-122.174;2023-06-01T06:10:42;11.20;99.90
16305;DHT22;8261;47.678;-122.174;2023-06-01T06:13:14;11.30;99.90
16305;DHT22;8261;47.678;-122.174;2023-06-01T06:15:46;11.20;99.90
16305;DHT22;8261;47.678;-122.174;2023-06-01T06:18:18;11.20;99.90
16305;DHT22;8261;47.678;-122.174;2023-06-01T06:20:52;11.10;99.90
16305;DHT22;8261;47.678;-122.174;2023-06-01T06:23:24;11.10;99.90
16305;DHT22;8261;47.678;-122.174;2023-06-01T06:25:56;11.00;99.90
16305;DHT22;8261;47.678;-122.174;2023-06-01T06:28:28;11.00;99.90
16305;DHT22;8261;47.678;-122.174;2023-06-01T06:31:00;11.00;99.90
16305;DHT22;8261;47.678;-122.174;2023-06-01T06:33:32;10.90;99.90
16305;DHT22;8261;47.678;-122.174;2023-06-01T06:36:06;10.90;99.90
16305;DHT22;8261;47.678;-122.174;2023-06-01T06:38:38;10.90;99.90
16305;DHT22;8261;47.678;-122.174;2023-06-01T06:41:09;10.80;99.90
16305;DHT22;8261;47.678;-122.174;2023-06-01T06:43:43;10.80;99.90
16305;DHT22;8261;47.678;-122.174;2023-06-01T06:46:15;10.80;99.90
16305;DHT22;8261;47.678;-122.174;2023-06-01T06:48:46;10.70;99.90
16305;DHT22;8261;47.678;-122.174;2023-06-01T06:51:20;10.60;99.90
16305;DHT22;8261;47.678;-122.174;2023-06-01T06:53:52;10.60;99.90
16305;DHT22;8261;47.678;-122.174;2023-06-01T06:56:23;10.70;99.90
16305;DHT22;8261;47.678;-122.174;2023-06-01T06:58:55;10.70;99.90
16305;DHT22;8261;47.678;-122.174;2023-06-01T07:01:34;10.60;99.90
16305;DHT22;8261;47.678;-122.174;2023-06-01T07:04:08;10.60;99.90
16305;DHT22;8261;47.678;-122.174;2023-06-01T07:06:42;10.60;99.90
16305;DHT22;8261;47.678;-122.174;2023-06-01T07:09:14;10.50;99.90
16305;DHT22;8261;47.678;-122.174;2023-06-01T07:11:46;10.50;99.90
16305;DHT22;8261;47.678;-122.174;2023-06-01T07:14:18;10.50;99.90
16305;DHT22;8261;47.678;-122.174;2023-06-01T07:16:49;10.50;99.90
16305;DHT22;8261;47.678;-122.174;2023-06-01T07:19:21;10.30;99.90
16305;DHT22;8261;47.678;-122.174;2023-06-01T07:21:55;10.30;99.90
16305;DHT22;8261;47.678;-122.174;2023-06-01T07:24:26;10.30;99.90
16305;DHT22;8261;47.678;-122.174;2023-06-01T07:26:58;10.30;99.90
16305;DHT22;8261;47.678;-122.174;2023-06-01T07:29:29;10.20;99.90
16305;DHT22;8261;47.678;-122.174;2023-06-01T07:32:01;10.30;99.90
16305;DHT22;8261;47.678;-122.174;2023-06-01T07:34:33;10.30;99.90
16305;DHT22;8261;47.678;-122.174;2023-06-01T07:37:07;10.20;99.90
16305;DHT22;8261;47.678;-122.174;2023-06-01T07:39:45;10.20;99.90
16305;DHT22;8261;47.678;-122.174;2023-06-01T07:42:16;10.10;99.90
16305;DHT22;8261;47.678;-122.174;2023-06-01T07:44:49;10.10;99.90
16305;DHT22;8261;47.678;-122.174;2023-06-01T07:47:21;10.10;99.90
16305;DHT22;8261;47.678;-122.174;2023-06-01T07:49:54;10.00;99.90
16305;DHT22;8261;47.678;-122.174;2023-06-01T07:52:28;10.10;99.90
16305;DHT22;8261;47.678;-122.174;2023-06-01T07:55:00;10.10;99.90
16305;DHT22;8261;47.678;-122.174;2023-06-01T07:57:32;10.00;99.90
16305;DHT22;8261;47.678;-122.174;2023-06-01T08:00:03;10.00;99.90
16305;DHT22;8261;47.678;-122.174;2023-06-01T08:02:40;10.10;99.90
16305;DHT22;8261;47.678;-122.174;2023-06-01T08:05:12;10.00;99.90
16305;DHT22;8261;47.678;-122.174;2023-06-01T08:07:48;9.90;99.90
16305;DHT22;8261;47.678;-122.174;2023-06-01T08:10:20;9.90;99.90
16305;DHT22;8261;47.678;-122.174;2023-06-01T08:12:51;9.90;99.90
16305;DHT22;8261;47.678;-122.174;2023-06-01T08:15:25;9.90;99.90
16305;DHT22;8261;47.678;-122.174;2023-06-01T08:17:58;9.90;99.90
16305;DHT22;8261;47.678;-122.174;2023-06-01T08:20:30;9.80;99.90
16305;DHT22;8261;47.678;-122.174;2023-06-01T08:23:04;9.80;99.90
16305;DHT22;8261;47.678;-122.174;2023-06-01T08:25:36;9.80;99.90
16305;DHT22;8261;47.678;-122.174;2023-06-01T08:28:09;9.80;99.90
16305;DHT22;8261;47.678;-122.174;2023-06-01T08:30:40;9.80;99.90
16305;DHT22;8261;47.678;-122.174;2023-06-01T08:33:12;9.80;99.90
16305;DHT22;8261;47.678;-122.174;2023-06-01T08:35:44;9.70;99.90
16305;DHT22;8261;47.678;-122.174;2023-06-01T08:38:20;9.50;99.90
16305;DHT22;8261;47.678;-122.174;2023-06-01T08:40:52;9.60;99.90
16305;DHT22;8261;47.678;-122.174;2023-06-01T08:43:27;9.60;99.90
16305;DHT22;8261;47.678;-122.174;2023-06-01T08:46:02;9.60;99.90
16305;DHT22;8261;47.678;-122.174;2023-06-01T08:48:34;9.50;99.90
16305;DHT22;8261;47.678;-122.174;2023-06-01T08:51:06;9.50;99.90
16305;DHT22;8261;47.678;-122.174;2023-06-01T08:53:42;9.50;99.90
16305;DHT22;8261;47.678;-122.174;2023-06-01T08:56:13;9.50;99.90
16305;DHT22;8261;47.678;-122.174;2023-06-01T08:58:47;9.50;99.90
16305;DHT22;8261;47.678;-122.174;2023-06-01T09:01:19;9.50;99.90
16305;DHT22;8261;47.678;-122.174;2023-06-01T09:03:52;9.40;99.90
16305;DHT22;8261;47.678;-122.174;2023-06-01T09:06:24;9.40;99.90
16305;DHT22;8261;47.678;-122.174;2023-06-01T09:08:58;9.40;99.90
16305;DHT22;8261;47.678;-122.174;2023-06-01T09:11:29;9.40;99.90
16305;DHT22;8261;47.678;-122.174;2023-06-01T09:14:01;9.40;99.90
16305;DHT22;8261;47.678;-122.174;2023-06-01T09:16:36;9.30;99.90
16305;DHT22;8261;47.678;-122.174;2023-06-01T09:19:08;9.20;99.90
16305;DHT22;8261;47.678;-122.174;2023-06-01T09:21:40;9.20;99.90
16305;DHT22;8261;47.678;-122.174;2023-06-01T09:24:23;9.20;99.90
16305;DHT22;8261;47.678;-122.174;2023-06-01T09:26:59;9.10;99.90
16305;DHT22;8261;47.678;-122.174;2023-06-01T09:29:31;9.10;99.90
16305;DHT22;8261;47.678;-122.174;2023-06-01T09:32:03;9.20;99.90
16305;DHT22;8261;47.678;-122.174;2023-06-01T09:34:44;9.10;99.90
16305;DHT22;8261;47.678;-122.174;2023-06-01T09:37:16;9.10;99.90
16305;DHT22;8261;47.678;-122.174;2023-06-01T09:39:51;9.10;99.90
16305;DHT22;8261;47.678;-122.174;2023-06-01T09:42:31;9.10;99.90
16305;DHT22;8261;47.678;-122.174;2023-06-01T09:45:18;9.10;99.90
16305;DHT22;8261;47.678;-122.174;2023-06-01T09:47:50;9.10;99.90
16305;DHT22;8261;47.678;-122.174;2023-06-01T09:50:33;9.10;99.90
16305;DHT22;8261;47.678;-122.174;2023-06-01T09:53:05;9.10;99.90
16305;DHT22;8261;47.678;-122.174;2023-06-01T09:55:59;9.10;99.90
16305;DHT22;8261;47.678;-122.174;2023-06-01T09:58:33;9.10;99.90
16305;DHT22;8261;47.678;-122.174;2023-06-01T10:01:08;9.10;99.90
16305;DHT22;8261;47.678;-122.174;2023-06-01T10:03:42;9.10;99.90
16305;DHT22;8261;47.678;-122.174;2023-06-01T10:06:15;9.10;99.90
16305;DHT22;8261;47.678;-122.174;2023-06-01T10:08:47;9.10;99.90
16305;DHT22;8261;47.678;-122.174;2023-06-01T10:11:22;9.00;99.90
16305;DHT22;8261;47.678;-122.174;2023-06-01T10:13:56;9.00;99.90
16305;DHT22;8261;47.678;-122.174;2023-06-01T10:16:29;9.00;99.90
16305;DHT22;8261;47.678;-122.174;2023-06-01T10:19:01;9.00;99.90
16305;DHT22;8261;47.678;-122.174;2023-06-01T10:21:34;9.00;99.90
16305;DHT22;8261;47.678;-122.174;2023-06-01T10:24:08;9.00;99.90
16305;DHT22;8261;47.678;-122.174;2023-06-01T10:26:57;9.00;99.90
16305;DHT22;8261;47.678;-122.174;2023-06-01T10:29:30;8.90;99.90
16305;DHT22;8261;47.678;-122.174;2023-06-01T10:32:03;8.80;99.90
16305;DHT22;8261;47.678;-122.174;2023-06-01T10:34:39;8.80;99.90
16305;DHT22;8261;47.678;-122.174;2023-06-01T10:37:12;8.80;99.90
16305;DHT22;8261;47.678;-122.174;2023-06-01T10:39:44;8.70;99.90
16305;DHT22;8261;47.678;-122.174;2023-06-01T10:42:39;8.70;99.90
16305;DHT22;8261;47.678;-122.174;2023-06-01T10:45:35;8.70;99.90
16305;DHT22;8261;47.678;-122.174;2023-06-01T10:48:07;8.70;99.90
16305;DHT22;8261;47.678;-122.174;2023-06-01T10:50:40;8.60;99.90
16305;DHT22;8261;47.678;-122.174;2023-06-01T10:53:27;8.60;99.90
16305;DHT22;8261;47.678;-122.174;2023-06-01T10:56:22;8.60;99.90
16305;DHT22;8261;47.678;-122.174;2023-06-01T10:59:24;8.60;99.90
16305;DHT22;8261;47.678;-122.174;2023-06-01T11:02:04;8.60;99.90
16305;DHT22;8261;47.678;-122.174;2023-06-01T11:04:36;8.60;99.90
16305;DHT22;8261;47.678;-122.174;2023-06-01T11:07:38;8.60;99.90
16305;DHT22;8261;47.678;-122.174;2023-06-01T11:10:10;8.60;99.90
16305;DHT22;8261;47.678;-122.174;2023-06-01T11:13:12;8.60;99.90
16305;DHT22;8261;47.678;-122.174;2023-06-01T11:16:30;8.50;99.90
16305;DHT22;8261;47.678;-122.174;2023-06-01T11:19:04;8.50;99.90
16305;DHT22;8261;47.678;-122.174;2023-06-01T11:21:37;8.50;99.90
16305;DHT22;8261;47.678;-122.174;2023-06-01T11:24:13;8.40;99.90
16305;DHT22;8261;47.678;-122.174;2023-06-01T11:26:46;8.40;99.90
16305;DHT22;8261;47.678;-122.174;2023-06-01T11:29:19;8.40;99.90
16305;DHT22;8261;47.678;-122.174;2023-06-01T11:31:54;8.40;99.90
16305;DHT22;8261;47.678;-122.174;2023-06-01T11:34:31;8.40;99.90
16305;DHT22;8261;47.678;-122.174;2023-06-01T11:37:11;8.40;99.90
16305;DHT22;8261;47.678;-122.174;2023-06-01T11:39:44;8.40;99.90
16305;DHT22;8261;47.678;-122.174;2023-06-01T11:42:17;8.30;99.90
16305;DHT22;8261;47.678;-122.174;2023-06-01T11:44:57;8.40;99.90
16305;DHT22;8261;47.678;-122.174;2023-06-01T11:47:32;8.40;99.90
16305;DHT22;8261;47.678;-122.174;2023-06-01T11:50:05;8.40;99.90
16305;DHT22;8261;47.678;-122.174;2023-06-01T11:52:36;8.40;99.90
16305;DHT22;8261;47.678;-122.174;2023-06-01T11:55:08;8.30;99.90
16305;DHT22;8261;47.678;-122.174;2023-06-01T11:57:41;8.30;99.90
16305;DHT22;8261;47.678;-122.174;2023-06-01T12:00:14;8.30;99.90
16305;DHT22;8261;47.678;-122.174;2023-06-01T12:02:47;8.20;99.90
16305;DHT22;8261;47.678;-122.174;2023-06-01T12:05:18;8.30;99.90
16305;DHT22;8261;47.678;-122.174;2023-06-01T12:07:50;8.30;99.90
16305;DHT22;8261;47.678;-122.174;2023-06-01T12:10:23;8.30;99.90
16305;DHT22;8261;47.678;-122.174;2023-06-01T12:12:57;8.20;99.90
16305;DHT22;8261;47.678;-122.174;2023-06-01T12:15:28;8.20;99.90
16305;DHT22;8261;47.678;-122.174;2023-06-01T12:18:02;8.20;99.90
16305;DHT22;8261;47.678;-122.174;2023-06-01T12:20:35;8.10;99.90
16305;DHT22;8261;47.678;-122.174;2023-06-01T12:23:13;8.10;99.90
16305;DHT22;8261;47.678;-122.174;2023-06-01T12:25:50;8.10;99.90
16305;DHT22;8261;47.678;-122.174;2023-06-01T12:28:23;8.20;99.90
16305;DHT22;8261;47.678;-122.174;2023-06-01T12:31:09;8.20;99.90
16305;DHT22;8261;47.678;-122.174;2023-06-01T12:33:44;8.20;99.90
16305;DHT22;8261;47.678;-122.174;2023-06-01T12:36:31;8.10;99.90
16305;DHT22;8261;47.678;-122.174;2023-06-01T12:39:03;8.10;99.90
16305;DHT22;8261;47.678;-122.174;2023-06-01T12:41:35;8.10;99.90
16305;DHT22;8261;47.678;-122.174;2023-06-01T12:44:07;8.10;99.90
16305;DHT22;8261;47.678;-122.174;2023-06-01T12:46:38;8.00;99.90
16305;DHT22;8261;47.678;-122.174;2023-06-01T12:49:16;8.00;99.90
16305;DHT22;8261;47.678;-122.174;2023-06-01T12:51:48;8.00;99.90
16305;DHT22;8261;47.678;-122.174;2023-06-01T12:54:21;8.00;99.90
16305;DHT22;8261;47.678;-122.174;2023-06-01T12:56:52;8.10;99.90
16305;DHT22;8261;47.678;-122.174;2023-06-01T12:59:25;8.10;99.90
16305;DHT22;8261;47.678;-122.174;2023-06-01T13:01:57;8.20;99.90
16305;DHT22;8261;47.678;-122.174;2023-06-01T13:04:31;8.20;99.90
16305;DHT22;8261;47.678;-122.174;2023-06-01T13:07:04;8.30;99.90
16305;DHT22;8261;47.678;-122.174;2023-06-01T13:09:36;8.30;99.90
16305;DHT22;8261;47.678;-122.174;2023-06-01T13:12:09;8.30;99.90
16305;DHT22;8261;47.678;-122.174;2023-06-01T13:14:40;8.40;99.90
16305;DHT22;8261;47.678;-122.174;2023-06-01T13:17:15;8.40;99.90
16305;DHT22;8261;47.678;-122.174;2023-06-01T13:19:50;8.40;99.90
16305;DHT22;8261;47.678;-122.174;2023-06-01T13:22:22;8.50;99.90
16305;DHT22;8261;47.678;-122.174;2023-06-01T13:24:54;8.50;99.90
16305;DHT22;8261;47.678;-122.174;2023-06-01T13:27:32;8.60;99.90
16305;DHT22;8261;47.678;-122.174;2023-06-01T13:30:06;8.60;99.90
16305;DHT22;8261;47.678;-122.174;2023-06-01T13:32:38;8.70;99.90
16305;DHT22;8261;47.678;-122.174;2023-06-01T13:35:12;8.80;99.90
16305;DHT22;8261;47.678;-122.174;2023-06-01T13:37:43;8.90;99.90
16305;DHT22;8261;47.678;-122.174;2023-06-01T13:40:15;9.10;99.90
16305;DHT22;8261;47.678;-122.174;2023-06-01T13:42:47;9.20;99.90
16305;DHT22;8261;47.678;-122.174;2023-06-01T13:45:19;9.20;99.90
16305;DHT22;8261;47.678;-122.174;2023-06-01T13:47:51;9.30;99.90
16305;DHT22;8261;47.678;-122.174;2023-06-01T13:50:26;9.40;99.90
16305;DHT22;8261;47.678;-122.174;2023-06-01T13:52:57;9.40;99.90
16305;DHT22;8261;47.678;-122.174;2023-06-01T13:55:28;9.40;99.90
16305;DHT22;8261;47.678;-122.174;2023-06-01T13:57:59;9.40;99.90
16305;DHT22;8261;47.678;-122.174;2023-06-01T14:00:31;9.40;99.90
16305;DHT22;8261;47.678;-122.174;2023-06-01T14:03:02;9.40;99.90
16305;DHT22;8261;47.678;-122.174;2023-06-01T14:05:36;9.50;99.90
16305;DHT22;8261;47.678;-122.174;2023-06-01T14:08:20;9.60;99.90
16305;DHT22;8261;47.678;-122.174;2023-06-01T14:10:52;9.70;99.90
16305;DHT22;8261;47.678;-122.174;2023-06-01T14:13:23;9.70;99.90
16305;DHT22;8261;47.678;-122.174;2023-06-01T14:15:54;9.80;99.90
16305;DHT22;8261;47.678;-122.174;2023-06-01T14:18:25;9.90;99.90
16305;DHT22;8261;47.678;-122.174;2023-06-01T14:21:02;9.90;99.90
16305;DHT22;8261;47.678;-122.174;2023-06-01T14:23:33;10.00;99.90
16305;DHT22;8261;47.678;-122.174;2023-06-01T14:26:05;10.00;99.90
16305;DHT22;8261;47.678;-122.174;2023-06-01T14:28:36;10.10;99.90
16305;DHT22;8261;47.678;-122.174;2023-06-01T14:31:08;10.20;99.90
16305;DHT22;8261;47.678;-122.174;2023-06-01T14:33:40;10.30;99.90
16305;DHT22;8261;47.678;-122.174;2023-06-01T14:36:14;10.40;99.90
16305;DHT22;8261;47.678;-122.174;2023-06-01T14:38:49;10.50;99.90
16305;DHT22;8261;47.678;-122.174;2023-06-01T14:41:21;10.70;99.90
16305;DHT22;8261;47.678;-122.174;2023-06-01T14:43:52;10.90;99.90
16305;DHT22;8261;47.678;-122.174;2023-06-01T14:46:24;11.10;99.90
16305;DHT22;8261;47.678;-122.174;2023-06-01T14:48:56;11.20;99.90
16305;DHT22;8261;47.678;-122.174;2023-06-01T14:51:30;11.30;99.90
16305;DHT22;8261;47.678;-122.174;2023-06-01T14:54:02;11.50;99.90
16305;DHT22;8261;47.678;-122.174;2023-06-01T14:56:34;11.60;99.90
16305;DHT22;8261;47.678;-122.174;2023-06-01T14:59:06;11.70;99.90
16305;DHT22;8261;47.678;-122.174;2023-06-01T15:01:37;11.80;99.90
16305;DHT22;8261;47.678;-122.174;2023-06-01T15:04:10;11.80;99.90
16305;DHT22;8261;47.678;-122.174;2023-06-01T15:06:43;11.80;99.90
16305;DHT22;8261;47.678;-122.174;2023-06-01T15:09:14;11.90;99.90
16305;DHT22;8261;47.678;-122.174;2023-06-01T15:11:45;12.10;99.90
16305;DHT22;8261;47.678;-122.174;2023-06-01T15:14:17;12.00;99.90
16305;DHT22;8261;47.678;-122.174;2023-06-01T15:16:48;12.00;99.90
16305;DHT22;8261;47.678;-122.174;2023-06-01T15:19:20;12.10;99.90
16305;DHT22;8261;47.678;-122.174;2023-06-01T15:21:53;12.10;99.90
16305;DHT22;8261;47.678;-122.174;2023-06-01T15:24:25;12.10;99.90
16305;DHT22;8261;47.678;-122.174;2023-06-01T15:26:56;12.20;99.90
16305;DHT22;8261;47.678;-122.174;2023-06-01T15:29:28;12.20;99.90
16305;DHT22;8261;47.678;-122.174;2023-06-01T15:32:01;12.20;99.90
16305;DHT22;8261;47.678;-122.174;2023-06-01T15:34:35;12.30;99.90
16305;DHT22;8261;47.678;-122.174;2023-06-01T15:37:12;12.30;99.90
16305;DHT22;8261;47.678;-122.174;2023-06-01T15:39:43;12.40;99.90
16305;DHT22;8261;47.678;-122.174;2023-06-01T15:42:15;12.30;99.90
16305;DHT22;8261;47.678;-122.174;2023-06-01T15:44:46;12.30;99.90
16305;DHT22;8261;47.678;-122.174;2023-06-01T15:47:17;12.40;99.90
16305;DHT22;8261;47.678;-122.174;2023-06-01T15:49:49;12.50;99.90
16305;DHT22;8261;47.678;-122.174;2023-06-01T15:52:22;12.50;99.90
16305;DHT22;8261;47.678;-122.174;2023-06-01T15:54:54;12.70;99.90
16305;DHT22;8261;47.678;-122.174;2023-06-01T15:57:25;12.80;99.90